< < Back
Terminal Aerodrome Forecast


Current Version              Previous Versions:   1  2  3  4  5  6  7  8  9  

Terminal Aerodrome Forecast

306
FTUS44 KHUN 200520
TAFHSV
TAF
KHSV 200520Z 2006/2106 13003KT P6SM SKC
      TEMPO 2010/2013 5SM BR
     FM201600 24006KT P6SM SCT120 BKN200
     FM210000 27003KT P6SM SKC=



Latest METAR

662
SAUS80 KWBC 201000 RRB
MTRHSV
METAR KHSV 200953Z AUTO 00000KT 10SM CLR 08/06 A3009 RMK AO2 SLP185
T00780061


USA.gov is the U.S. government's official web portal to all federal, state and local government web resources and services.